Terminal Aerodrome Forecast
Issued by NWS

Home | Current Version | Previous Version | Text Only | Print | Product List | Glossary On
Versions: 1 2 3 4 5 6 7 8 9 10 11 12 13 14 15 16 17 18 19 20 21 22 23
000
FTUS43 KMPX 281120
TAFRNH
TAF
KRNH 281120Z 2812/2912 VRB02KT 2SM BR OVC006
      TEMPO 2812/2814 3/4SM -SHRA BR VV002
     FM281400 VRB03KT 3SM -SHRA BR BKN007 OVC015
     FM281600 15005KT 5SM BR VCSH OVC020
     FM281800 16005KT P6SM SCT025 BKN040
     FM282000 17005KT P6SM -SHRA SCT020 OVC050
     FM290300 18005KT 5SM BR SCT007 OVC015=

USA.gov is the U.S. government's official web portal to all federal, state and local government web resources and services.